createdAt,value
2019-04-25T00:01:49.725Z,10.83
2019-04-25T00:04:21.531Z,10.84
2019-04-25T00:06:52.156Z,10.73
2019-04-25T00:09:23.626Z,10.63
2019-04-25T00:11:53.283Z,10.61
2019-04-25T00:14:23.783Z,10.58
2019-04-25T00:16:54.841Z,10.51
2019-04-25T00:19:24.565Z,10.50
2019-04-25T00:21:58.735Z,10.46
2019-04-25T00:24:39.604Z,10.39
2019-04-25T00:27:09.597Z,10.33
2019-04-25T00:29:39.301Z,10.32
2019-04-25T00:32:09.054Z,10.30
2019-04-25T00:34:38.778Z,10.30
2019-04-25T00:37:09.372Z,10.26
2019-04-25T00:39:38.995Z,10.26
2019-04-25T00:42:08.653Z,10.18
2019-04-25T00:44:38.339Z,10.17
2019-04-25T00:47:08.080Z,10.17
2019-04-25T00:49:37.781Z,10.16
2019-04-25T00:52:07.449Z,10.18
2019-04-25T00:54:37.070Z,10.23
2019-04-25T00:57:06.689Z,10.19
2019-04-25T00:59:37.977Z,10.15
2019-04-25T01:02:21.401Z,10.14
2019-04-25T01:04:52.090Z,10.15
2019-04-25T01:07:23.945Z,10.15
2019-04-25T01:09:54.556Z,10.11
2019-04-25T01:12:24.611Z,10.23
2019-04-25T01:14:54.764Z,10.15
2019-04-25T01:17:25.003Z,9.96
2019-04-25T01:19:56.927Z,9.97
2019-04-25T01:22:25.967Z,9.89
2019-04-25T01:24:56.076Z,9.85
2019-04-25T01:27:25.787Z,9.83
2019-04-25T01:29:56.345Z,9.84
2019-04-25T01:32:30.561Z,9.78
2019-04-25T01:35:01.856Z,9.76
2019-04-25T01:37:34.078Z,9.75
2019-04-25T01:40:25.224Z,9.75
2019-04-25T01:43:03.739Z,9.79
2019-04-25T01:45:35.016Z,9.77
2019-04-25T01:48:05.789Z,9.79
2019-04-25T01:50:35.409Z,9.79
2019-04-25T01:53:05.032Z,9.78
2019-04-25T01:55:34.680Z,9.79
2019-04-25T01:58:04.292Z,9.80
2019-04-25T02:00:35.597Z,9.82
2019-04-25T02:03:05.484Z,9.85
2019-04-25T02:05:35.218Z,9.83
2019-04-25T02:08:06.935Z,9.84
2019-04-25T02:10:36.326Z,9.84
2019-04-25T02:13:07.652Z,9.86
2019-04-25T02:15:37.457Z,9.83
2019-04-25T02:18:07.076Z,9.81
2019-04-25T02:20:36.765Z,9.77
2019-04-25T02:23:06.409Z,9.83
2019-04-25T02:25:36.025Z,9.74
2019-04-25T02:28:05.802Z,9.69
2019-04-25T02:30:35.860Z,9.71
2019-04-25T02:33:08.565Z,9.72
2019-04-25T02:35:37.338Z,9.70
2019-04-25T02:38:08.810Z,9.68
2019-04-25T02:40:38.312Z,9.68
2019-04-25T02:43:08.385Z,9.63
2019-04-25T02:45:40.105Z,9.60
2019-04-25T02:48:27.440Z,9.54
2019-04-25T02:51:07.715Z,9.49
2019-04-25T02:53:39.130Z,9.44
2019-04-25T02:56:27.638Z,9.46
2019-04-25T02:58:41.470Z,9.42
2019-04-25T03:01:19.429Z,9.41
2019-04-25T03:03:44.922Z,9.40
2019-04-25T03:06:15.321Z,9.36
2019-04-25T03:08:45.331Z,9.37
2019-04-25T03:11:15.352Z,9.39
2019-04-25T03:13:45.181Z,9.46
2019-04-25T03:16:14.809Z,9.43
2019-04-25T03:18:58.925Z,9.36
2019-04-25T03:21:30.671Z,9.37
2019-04-25T03:24:01.440Z,9.39
2019-04-25T03:26:39.678Z,9.39
2019-04-25T03:29:04.659Z,9.39
2019-04-25T03:31:34.862Z,9.39
2019-04-25T03:34:09.795Z,9.42
2019-04-25T03:36:36.321Z,9.45
2019-04-25T03:39:08.678Z,9.45
2019-04-25T03:41:38.385Z,9.45
2019-04-25T03:44:08.055Z,9.47
2019-04-25T03:46:37.669Z,9.48
2019-04-25T03:49:07.609Z,9.48
2019-04-25T03:51:37.416Z,9.52
2019-04-25T03:54:08.513Z,9.51
2019-04-25T03:56:49.627Z,9.53
2019-04-25T03:59:10.577Z,9.54
2019-04-25T04:01:40.306Z,9.56
2019-04-25T04:04:09.922Z,9.57
2019-04-25T04:06:39.571Z,9.60
2019-04-25T04:09:09.820Z,9.59
2019-04-25T04:11:39.822Z,9.58
2019-04-25T04:14:10.295Z,9.58
2019-04-25T04:16:41.980Z,9.63
2019-04-25T04:19:11.673Z,9.62
2019-04-25T04:21:45.690Z,9.65
2019-04-25T04:24:16.947Z,9.64
2019-04-25T04:26:48.303Z,9.65
2019-04-25T04:29:17.921Z,9.67
2019-04-25T04:31:47.642Z,9.68
2019-04-25T04:34:17.263Z,9.74
2019-04-25T04:36:46.916Z,9.79
2019-04-25T04:39:17.711Z,9.88
2019-04-25T04:41:47.968Z,9.92
2019-04-25T04:44:18.153Z,9.97
2019-04-25T04:46:47.933Z,9.99
2019-04-25T04:49:18.325Z,10.05
2019-04-25T04:51:48.294Z,10.18
2019-04-25T04:54:17.925Z,10.22
2019-04-25T04:56:47.643Z,10.31
2019-04-25T04:59:17.268Z,10.39
2019-04-25T05:02:03.631Z,10.45
2019-04-25T05:07:40.009Z,10.60
2019-04-25T05:10:10.442Z,10.75
2019-04-25T05:12:41.072Z,10.88
2019-04-25T05:15:14.845Z,10.98
2019-04-25T05:17:44.021Z,11.13
2019-04-25T05:20:15.971Z,11.24
2019-04-25T05:22:45.148Z,11.36
2019-04-25T05:25:16.343Z,11.49
2019-04-25T05:27:59.575Z,11.60
2019-04-25T05:30:21.173Z,11.74
2019-04-25T05:32:50.839Z,11.85
2019-04-25T05:35:20.462Z,11.98
2019-04-25T05:37:50.127Z,12.08
2019-04-25T05:40:20.153Z,12.16
2019-04-25T05:42:51.586Z,12.27
2019-04-25T05:45:23.818Z,12.40
2019-04-25T05:47:54.383Z,12.51
2019-04-25T05:50:25.088Z,12.66
2019-04-25T05:52:55.138Z,12.77
2019-04-25T05:55:25.227Z,12.91
2019-04-25T05:57:55.198Z,13.05
2019-04-25T06:00:25.999Z,13.13
2019-04-25T06:02:56.034Z,13.28
2019-04-25T06:05:26.485Z,13.41
2019-04-25T06:07:56.897Z,13.57
2019-04-25T06:10:34.724Z,13.67
2019-04-25T06:13:15.164Z,13.81
2019-04-25T06:15:46.475Z,13.98
2019-04-25T06:18:17.773Z,14.10
2019-04-25T06:20:47.467Z,14.27
2019-04-25T06:23:25.583Z,14.38
2019-04-25T06:25:55.536Z,14.51
2019-04-25T06:28:26.829Z,14.65
2019-04-25T06:30:56.522Z,14.77
2019-04-25T06:33:27.191Z,14.92
2019-04-25T06:35:57.049Z,15.06
2019-04-25T06:38:27.536Z,15.17
2019-04-25T06:40:58.078Z,15.30
2019-04-25T06:43:28.521Z,15.49
2019-04-25T06:46:18.053Z,15.65
2019-04-25T06:48:49.357Z,15.75
2019-04-25T06:51:18.988Z,15.87
2019-04-25T06:53:48.661Z,16.02
2019-04-25T06:56:18.349Z,16.10
2019-04-25T06:58:48.007Z,16.25
2019-04-25T07:01:17.641Z,16.39
2019-04-25T07:03:47.299Z,16.57
2019-04-25T07:06:16.923Z,16.66
2019-04-25T07:08:46.599Z,16.81
2019-04-25T07:11:16.259Z,16.97
2019-04-25T07:13:46.019Z,17.10
2019-04-25T07:16:15.818Z,17.26
2019-04-25T07:18:45.506Z,17.42
2019-04-25T07:21:16.096Z,17.59
2019-04-25T07:23:46.356Z,17.69
2019-04-25T07:26:19.493Z,17.64
2019-04-25T07:31:48.050Z,17.52
2019-04-25T07:34:19.355Z,17.59
2019-04-25T07:36:50.746Z,17.67
2019-04-25T07:39:20.669Z,17.89
2019-04-25T07:41:50.454Z,18.06
2019-04-25T07:44:24.622Z,18.20
2019-04-25T07:46:51.639Z,18.38
2019-04-25T07:49:21.374Z,18.50
2019-04-25T07:51:51.079Z,18.64
2019-04-25T07:54:20.772Z,18.80
2019-04-25T07:56:50.441Z,18.97
2019-04-25T07:59:21.512Z,19.16
2019-04-25T08:01:53.953Z,19.33
2019-04-25T08:04:24.885Z,19.43
2019-04-25T08:06:57.049Z,19.57
2019-04-25T08:09:27.507Z,19.76
2019-04-25T08:11:57.886Z,19.96
2019-04-25T08:14:33.892Z,20.15
2019-04-25T08:17:05.087Z,20.30
2019-04-25T08:19:35.594Z,20.47
2019-04-25T08:22:05.313Z,20.66
2019-04-25T08:24:37.124Z,20.78
2019-04-25T08:27:07.147Z,20.88
2019-04-25T08:29:39.427Z,21.06
2019-04-25T08:32:08.158Z,21.20
2019-04-25T08:34:38.598Z,21.33
2019-04-25T08:37:18.071Z,21.47
2019-04-25T08:39:40.146Z,21.62
2019-04-25T08:42:09.769Z,21.77
2019-04-25T08:44:39.511Z,21.84
2019-04-25T08:47:09.218Z,21.93
2019-04-25T08:49:40.518Z,22.14
2019-04-25T08:52:10.136Z,22.25
2019-04-25T08:54:57.607Z,22.33
2019-04-25T08:57:45.413Z,22.37
2019-04-25T09:00:19.746Z,22.31
2019-04-25T09:02:54.473Z,22.47
2019-04-25T09:05:38.857Z,22.58
2019-04-25T09:08:08.740Z,22.65
2019-04-25T09:10:39.973Z,22.71
2019-04-25T09:13:09.814Z,22.80
2019-04-25T09:15:39.553Z,22.90
2019-04-25T09:18:09.294Z,22.96
2019-04-25T09:20:40.845Z,22.89
2019-04-25T09:23:10.357Z,22.94
2019-04-25T09:25:40.678Z,23.15
2019-04-25T09:28:10.932Z,23.36
2019-04-25T09:30:40.799Z,23.49
2019-04-25T09:33:10.517Z,23.64
2019-04-25T09:35:40.204Z,23.79
2019-04-25T09:38:10.070Z,23.81
2019-04-25T09:40:39.720Z,23.90
2019-04-25T09:43:09.595Z,23.88
2019-04-25T09:45:41.626Z,23.96
2019-04-25T09:48:23.247Z,24.08
2019-04-25T09:51:07.398Z,24.16
2019-04-25T09:53:44.730Z,24.31
2019-04-25T09:56:11.566Z,24.79
2019-04-25T09:58:57.857Z,25.07
2019-04-25T10:01:27.947Z,25.05
2019-04-25T10:03:57.605Z,25.10
2019-04-25T10:06:27.442Z,25.29
2019-04-25T10:08:57.132Z,25.39
2019-04-25T10:11:26.857Z,25.39
2019-04-25T10:14:13.529Z,25.36
2019-04-25T10:16:44.498Z,25.40
2019-04-25T10:19:14.745Z,25.58
2019-04-25T10:21:45.193Z,25.63
2019-04-25T10:24:15.133Z,25.82
2019-04-25T10:26:45.180Z,25.81
2019-04-25T10:29:16.026Z,25.83
2019-04-25T10:31:46.934Z,25.95
2019-04-25T10:34:16.581Z,25.96
2019-04-25T10:36:47.569Z,26.20
2019-04-25T10:39:17.331Z,26.28
2019-04-25T10:41:48.122Z,26.34
2019-04-25T10:44:18.199Z,26.66
2019-04-25T10:46:48.499Z,26.80
2019-04-25T10:49:18.231Z,26.76
2019-04-25T10:51:48.052Z,26.81
2019-04-25T10:54:19.030Z,26.84
2019-04-25T10:56:48.647Z,26.84
2019-04-25T10:59:18.304Z,26.76
2019-04-25T11:01:48.913Z,26.96
2019-04-25T11:04:20.542Z,27.18
2019-04-25T11:06:50.179Z,27.55
2019-04-25T11:09:21.545Z,28.19
2019-04-25T11:11:52.350Z,28.68
2019-04-25T11:14:23.805Z,29.01
2019-04-25T11:16:55.217Z,29.09
2019-04-25T11:19:24.992Z,29.25
2019-04-25T11:21:54.647Z,30.25
2019-04-25T11:24:24.266Z,30.25
2019-04-25T11:26:55.238Z,31.11
2019-04-25T11:29:25.542Z,31.07
2019-04-25T11:31:55.260Z,30.89
2019-04-25T11:34:24.957Z,30.91
2019-04-25T11:36:54.726Z,30.40
2019-04-25T11:39:37.939Z,30.40
2019-04-25T11:42:08.527Z,29.62
2019-04-25T11:44:38.813Z,28.88
2019-04-25T11:47:08.785Z,28.88
2019-04-25T11:49:38.827Z,28.71
2019-04-25T11:52:09.815Z,28.65
2019-04-25T11:54:39.469Z,28.37
2019-04-25T11:57:09.094Z,28.19
2019-04-25T11:59:40.096Z,28.14
2019-04-25T12:02:11.364Z,28.18
2019-04-25T12:04:46.223Z,28.17
2019-04-25T12:07:16.942Z,28.08
2019-04-25T12:09:47.090Z,27.60
2019-04-25T12:12:23.440Z,27.36
2019-04-25T12:14:55.414Z,27.55
2019-04-25T12:17:25.453Z,27.21
2019-04-25T12:19:56.183Z,27.23
2019-04-25T12:22:27.408Z,27.15
2019-04-25T12:24:57.105Z,26.86
2019-04-25T12:27:26.734Z,26.77
2019-04-25T12:29:57.285Z,26.33
2019-04-25T12:32:27.140Z,26.13
2019-04-25T12:34:56.784Z,25.81
2019-04-25T12:37:50.354Z,26.00
2019-04-25T12:40:20.063Z,26.16
2019-04-25T12:42:49.791Z,26.36
2019-04-25T12:45:21.095Z,26.38
2019-04-25T12:47:56.157Z,26.33
2019-04-25T12:50:24.733Z,26.40
2019-04-25T12:52:55.980Z,26.39
2019-04-25T12:55:25.885Z,26.29
2019-04-25T12:57:56.573Z,26.24
2019-04-25T13:00:29.580Z,26.24
2019-04-25T13:02:59.202Z,26.16
2019-04-25T13:05:28.902Z,26.02
2019-04-25T13:07:59.898Z,25.96
2019-04-25T13:10:30.166Z,25.83
2019-04-25T13:12:59.835Z,25.75
2019-04-25T13:15:29.759Z,25.64
2019-04-25T13:17:59.500Z,25.53
2019-04-25T13:20:29.193Z,25.49
2019-04-25T13:22:58.855Z,25.37
2019-04-25T13:25:29.720Z,25.20
2019-04-25T13:28:03.423Z,25.27
2019-04-25T13:30:34.353Z,25.42
2019-04-25T13:33:06.528Z,25.35
2019-04-25T13:35:38.048Z,25.29
2019-04-25T13:38:08.620Z,25.19
2019-04-25T13:40:38.504Z,25.21
2019-04-25T13:43:08.223Z,25.24
2019-04-25T13:45:37.959Z,25.11
2019-04-25T13:48:08.650Z,25.22
2019-04-25T13:50:39.789Z,25.23
2019-04-25T13:53:10.027Z,25.24
2019-04-25T13:55:40.598Z,25.26
2019-04-25T13:58:11.184Z,25.28
2019-04-25T14:00:41.907Z,25.22
2019-04-25T14:03:11.707Z,25.18
2019-04-25T14:05:41.542Z,25.12
2019-04-25T14:08:13.452Z,24.99
2019-04-25T14:10:47.317Z,24.87
2019-04-25T14:13:16.573Z,24.86
2019-04-25T14:15:47.894Z,24.83
2019-04-25T14:18:19.317Z,24.76
2019-04-25T14:20:50.630Z,24.74
2019-04-25T14:23:20.614Z,24.78
2019-04-25T14:25:51.365Z,24.76
2019-04-25T14:28:21.913Z,24.73
2019-04-25T14:30:51.904Z,24.78
2019-04-25T14:33:23.114Z,24.92
2019-04-25T14:35:53.342Z,25.51
2019-04-25T14:38:25.621Z,25.83
2019-04-25T14:40:55.924Z,25.69
2019-04-25T14:43:26.205Z,25.52
2019-04-25T14:45:56.527Z,25.35
2019-04-25T14:48:27.185Z,25.22
2019-04-25T14:50:57.397Z,25.12
2019-04-25T14:53:28.004Z,25.06
2019-04-25T14:56:05.179Z,25.05
2019-04-25T14:58:36.479Z,25.00
2019-04-25T15:01:06.271Z,24.94
2019-04-25T15:03:35.934Z,24.95
2019-04-25T15:06:05.722Z,24.92
2019-04-25T15:08:35.351Z,24.95
2019-04-25T15:11:05.578Z,25.29
2019-04-25T15:13:35.301Z,25.84
2019-04-25T15:16:05.048Z,26.18
2019-04-25T15:18:46.075Z,26.54
2019-04-25T15:21:06.880Z,26.63
2019-04-25T15:23:36.501Z,26.56
2019-04-25T15:26:07.651Z,26.57
2019-04-25T15:28:37.341Z,26.70
2019-04-25T15:31:07.065Z,26.74
2019-04-25T15:33:38.549Z,27.01
2019-04-25T15:36:09.839Z,27.99
2019-04-25T15:38:50.278Z,29.93
2019-04-25T15:41:25.121Z,30.57
2019-04-25T15:44:08.572Z,30.21
2019-04-25T15:46:42.415Z,28.89
2019-04-25T15:49:11.207Z,28.06
2019-04-25T15:51:40.466Z,27.60
2019-04-25T15:54:10.132Z,27.27
2019-04-25T15:56:39.840Z,27.15
2019-04-25T15:59:09.478Z,26.77
2019-04-25T16:01:39.164Z,26.31
2019-04-25T16:04:08.849Z,26.20
2019-04-25T16:06:38.581Z,26.09
2019-04-25T16:09:10.364Z,26.09
2019-04-25T16:11:40.549Z,26.26
2019-04-25T16:14:11.552Z,26.40
2019-04-25T16:16:41.302Z,27.03
2019-04-25T16:19:11.998Z,26.87
2019-04-25T16:21:42.213Z,26.90
2019-04-25T16:24:12.103Z,26.74
2019-04-25T16:26:42.481Z,26.42
2019-04-25T16:29:13.878Z,25.99
2019-04-25T16:31:43.627Z,25.70
2019-04-25T16:34:13.329Z,25.44
2019-04-25T16:36:43.031Z,25.02
2019-04-25T16:39:17.216Z,24.84
2019-04-25T16:41:48.152Z,24.78
2019-04-25T16:44:19.427Z,24.72
2019-04-25T16:46:49.234Z,24.72
2019-04-25T16:49:18.933Z,24.64
2019-04-25T16:51:48.589Z,24.54
2019-04-25T16:54:19.662Z,24.39
2019-04-25T16:56:49.432Z,24.27
2019-04-25T16:59:19.131Z,24.08
2019-04-25T17:01:49.103Z,23.91
2019-04-25T17:04:19.964Z,23.77
2019-04-25T17:06:49.957Z,23.57
2019-04-25T17:09:19.870Z,23.45
2019-04-25T17:11:49.488Z,23.35
2019-04-25T17:14:23.732Z,23.29
2019-04-25T17:16:55.044Z,23.19
2019-04-25T17:19:26.318Z,23.05
2019-04-25T17:21:56.042Z,22.90
2019-04-25T17:24:25.671Z,22.78
2019-04-25T17:26:55.443Z,22.66
2019-04-25T17:29:25.088Z,22.54
2019-04-25T17:31:59.371Z,22.48
2019-04-25T17:34:33.874Z,22.34
2019-04-25T17:37:17.459Z,22.27
2019-04-25T17:39:51.795Z,22.19
2019-04-25T17:42:21.423Z,22.06
2019-04-25T17:44:51.078Z,21.97
2019-04-25T17:47:20.708Z,21.82
2019-04-25T17:49:50.368Z,21.76
2019-04-25T17:52:19.977Z,21.72
2019-04-25T17:54:49.725Z,21.63
2019-04-25T17:57:19.350Z,21.50
2019-04-25T17:59:49.010Z,21.43
2019-04-25T18:02:18.716Z,21.31
2019-04-25T18:04:48.338Z,21.24
2019-04-25T18:07:17.998Z,21.18
2019-04-25T18:09:47.629Z,21.12
2019-04-25T18:12:17.358Z,21.08
2019-04-25T18:14:47.453Z,21.01
2019-04-25T18:17:17.187Z,20.90
2019-04-25T18:19:51.150Z,20.82
2019-04-25T18:22:28.207Z,20.76
2019-04-25T18:25:02.237Z,20.72
2019-04-25T18:27:33.615Z,20.59
2019-04-25T18:30:06.145Z,20.59
2019-04-25T18:32:37.306Z,20.53
2019-04-25T18:35:11.525Z,20.48
2019-04-25T18:37:45.734Z,20.42
2019-04-25T18:40:25.946Z,20.39
2019-04-25T18:42:57.285Z,20.32
2019-04-25T18:45:28.658Z,20.29
2019-04-25T18:47:58.281Z,20.28
2019-04-25T18:50:29.576Z,20.22
2019-04-25T18:53:06.622Z,20.19
2019-04-25T18:55:43.901Z,20.12
2019-04-25T18:58:15.170Z,20.12
2019-04-25T19:00:46.473Z,20.06
2019-04-25T19:03:26.589Z,20.02
2019-04-25T19:06:00.438Z,20.01
2019-04-25T19:08:30.136Z,20.00
2019-04-25T19:10:59.932Z,19.95
2019-04-25T19:13:29.682Z,19.92
2019-04-25T19:15:59.393Z,19.87
2019-04-25T19:18:29.040Z,19.87
2019-04-25T19:20:59.726Z,19.82
2019-04-25T19:23:29.458Z,19.77
2019-04-25T19:25:59.092Z,19.79
2019-04-25T19:28:28.759Z,19.77
2019-04-25T19:30:58.384Z,19.70
2019-04-25T19:33:35.651Z,19.65
2019-04-25T19:35:59.427Z,19.64
2019-04-25T19:38:29.176Z,19.62
2019-04-25T19:41:03.264Z,19.60
2019-04-25T19:43:34.648Z,19.54
2019-04-25T19:46:04.277Z,19.56
2019-04-25T19:48:34.021Z,19.49
2019-04-25T19:51:03.645Z,19.44
2019-04-25T19:53:33.339Z,19.42
2019-04-25T19:56:02.996Z,19.37
2019-04-25T19:58:32.719Z,19.40
2019-04-25T20:01:02.451Z,19.37
2019-04-25T20:03:49.423Z,19.38
2019-04-25T20:06:28.792Z,19.31
2019-04-25T20:09:09.238Z,19.22
2019-04-25T20:11:49.348Z,19.16
2019-04-25T20:14:19.225Z,19.14
2019-04-25T20:16:49.643Z,19.12
2019-04-25T20:19:19.462Z,19.06
2019-04-25T20:21:49.968Z,19.03
2019-04-25T20:24:19.791Z,19.02
2019-04-25T20:26:50.391Z,19.00
2019-04-25T20:29:20.357Z,18.91
2019-04-25T20:31:50.666Z,18.90
2019-04-25T20:34:20.442Z,18.83
2019-04-25T20:36:50.066Z,18.77
2019-04-25T20:39:19.754Z,18.73
2019-04-25T20:41:49.761Z,18.70
2019-04-25T20:44:19.640Z,18.68
2019-04-25T20:46:49.295Z,18.59
2019-04-25T20:49:18.950Z,18.52
2019-04-25T20:51:48.637Z,18.47
2019-04-25T20:54:18.269Z,18.41
2019-04-25T20:56:49.121Z,18.36
2019-04-25T20:59:19.232Z,18.33
2019-04-25T21:01:49.729Z,18.27
2019-04-25T21:04:37.661Z,18.21
2019-04-25T21:07:07.457Z,18.16
2019-04-25T21:09:37.155Z,18.11
2019-04-25T21:12:06.778Z,18.14
2019-04-25T21:14:40.547Z,18.03
2019-04-25T21:17:11.842Z,17.91
2019-04-25T21:19:43.102Z,17.81
2019-04-25T21:22:12.757Z,17.65
2019-04-25T21:24:43.558Z,17.51
2019-04-25T21:27:13.283Z,17.44
2019-04-25T21:29:42.898Z,17.49
2019-04-25T21:32:12.608Z,17.56
2019-04-25T21:34:42.261Z,17.66
2019-04-25T21:37:12.536Z,17.70
2019-04-25T21:39:52.243Z,17.77
2019-04-25T21:42:23.370Z,17.83
2019-04-25T21:44:54.089Z,17.83
2019-04-25T21:47:24.006Z,17.81
2019-04-25T21:49:54.356Z,17.84
2019-04-25T21:52:24.498Z,17.91
2019-04-25T21:54:55.580Z,17.88
2019-04-25T21:57:25.708Z,17.92
2019-04-25T22:00:03.063Z,17.93
2019-04-25T22:02:28.527Z,17.91
2019-04-25T22:04:58.737Z,17.87
2019-04-25T22:07:28.949Z,17.84
2019-04-25T22:09:59.437Z,17.85
2019-04-25T22:12:29.379Z,17.87
2019-04-25T22:14:59.322Z,17.87
2019-04-25T22:17:29.410Z,17.80
2019-04-25T22:19:59.824Z,17.77
2019-04-25T22:22:30.022Z,17.73
2019-04-25T22:25:00.470Z,17.68
2019-04-25T22:27:33.096Z,17.64
2019-04-25T22:30:03.633Z,17.55
2019-04-25T22:32:51.894Z,17.51
2019-04-25T22:35:32.106Z,17.47
2019-04-25T22:38:04.284Z,17.39
2019-04-25T22:40:34.155Z,17.32
2019-04-25T22:43:04.992Z,17.27
2019-04-25T22:45:36.905Z,17.19
2019-04-25T22:48:06.722Z,17.19
2019-04-25T22:50:36.702Z,17.10
2019-04-25T22:53:06.361Z,17.06
2019-04-25T22:55:36.253Z,17.04
2019-04-25T22:58:05.880Z,17.02
2019-04-25T23:00:37.189Z,16.99
2019-04-25T23:03:09.346Z,16.98
2019-04-25T23:05:52.569Z,16.97
2019-04-25T23:08:22.622Z,16.93
2019-04-25T23:10:52.229Z,16.89
2019-04-25T23:13:21.851Z,16.86
2019-04-25T23:15:51.506Z,16.83
2019-04-25T23:18:21.664Z,16.76
2019-04-25T23:20:51.327Z,16.75
2019-04-25T23:23:21.395Z,16.67
2019-04-25T23:26:05.188Z,16.63
2019-04-25T23:28:40.533Z,16.55
2019-04-25T23:31:14.688Z,16.47
2019-04-25T23:33:44.920Z,16.41
2019-04-25T23:36:15.395Z,16.38
2019-04-25T23:38:45.218Z,16.40
2019-04-25T23:41:15.710Z,16.37
2019-04-25T23:43:45.608Z,16.35
2019-04-25T23:46:16.256Z,16.30
2019-04-25T23:48:46.040Z,16.26
2019-04-25T23:51:15.708Z,16.28
2019-04-25T23:53:45.511Z,16.24
2019-04-25T23:56:15.244Z,16.22
2019-04-25T23:58:45.368Z,16.24
